createdAt,value
2023-12-30T00:02:46.681Z,100521.22
2023-12-30T00:07:48.612Z,100526.31
2023-12-30T00:12:50.659Z,100505.09
2023-12-30T00:17:52.792Z,100515.38
2023-12-30T00:22:54.874Z,100545.03
2023-12-30T00:27:57.304Z,100543.34
2023-12-30T00:32:59.550Z,100545.66
2023-12-30T00:38:01.754Z,100538.97
2023-12-30T00:43:04.163Z,100560.97
2023-12-30T00:48:06.701Z,100565.22
2023-12-30T00:53:08.710Z,100554.72
2023-12-30T00:58:10.716Z,100567.88
2023-12-30T01:03:12.778Z,100574.59
2023-12-30T01:08:14.911Z,100577.03
2023-12-30T01:13:16.948Z,100582.13
2023-12-30T01:18:19.128Z,100587.09
2023-12-30T01:23:21.233Z,100605.41
2023-12-30T01:28:23.269Z,100601.53
2023-12-30T01:33:25.369Z,100609.13
2023-12-30T01:38:27.628Z,100613.28
2023-12-30T01:43:33.126Z,100612.13
2023-12-30T01:48:37.168Z,100612.38
2023-12-30T01:53:42.601Z,100625.09
2023-12-30T01:58:44.801Z,100608.78
2023-12-30T02:03:48.315Z,100610.31
2023-12-30T02:08:50.815Z,100616.38
2023-12-30T02:13:52.900Z,100621.56
2023-12-30T02:18:54.995Z,100620.63
2023-12-30T02:23:57.000Z,100619.75
2023-12-30T02:28:58.909Z,100605.31
2023-12-30T02:34:01.062Z,100608.44
2023-12-30T02:39:03.118Z,100628.16
2023-12-30T02:44:05.599Z,100626.41
2023-12-30T02:49:07.739Z,100624.88
2023-12-30T02:54:09.833Z,100626.41
2023-12-30T02:59:12.042Z,100647.91
2023-12-30T03:04:14.125Z,100655.72
2023-12-30T03:09:16.326Z,100640.50
2023-12-30T03:14:18.340Z,100655.53
2023-12-30T03:19:20.411Z,100659.75
2023-12-30T03:24:22.716Z,100670.22
2023-12-30T03:29:25.141Z,100686.00
2023-12-30T03:34:27.438Z,100656.38
2023-12-30T03:39:29.778Z,100667.91
2023-12-30T03:44:32.898Z,100652.66
2023-12-30T03:49:35.444Z,100662.72
2023-12-30T03:54:37.443Z,100662.75
2023-12-30T03:59:39.498Z,100664.41
2023-12-30T04:04:44.468Z,100681.25
2023-12-30T04:09:46.821Z,100662.44
2023-12-30T04:14:49.259Z,100684.66
2023-12-30T04:19:51.410Z,100689.09
2023-12-30T04:24:54.666Z,100677.84
2023-12-30T04:29:57.819Z,100670.69
2023-12-30T04:35:00.152Z,100684.56
2023-12-30T04:40:02.234Z,100705.78
2023-12-30T04:45:04.949Z,100704.22
2023-12-30T04:50:07.529Z,100705.81
2023-12-30T04:55:10.299Z,100686.06
2023-12-30T05:00:12.990Z,100701.53
2023-12-30T05:05:15.042Z,100717.75
2023-12-30T05:10:17.241Z,100701.50
2023-12-30T05:15:19.307Z,100717.59
2023-12-30T05:20:21.385Z,100687.28
2023-12-30T05:25:23.465Z,100729.91
2023-12-30T05:30:25.553Z,100729.97
2023-12-30T05:35:27.542Z,100741.59
2023-12-30T05:40:29.562Z,100752.59
2023-12-30T05:45:40.866Z,100748.09
2023-12-30T05:50:42.880Z,100777.00
2023-12-30T05:55:44.867Z,100771.06
2023-12-30T06:00:46.810Z,100784.66
2023-12-30T06:05:48.933Z,100777.47
2023-12-30T06:10:55.235Z,100793.78
2023-12-30T06:15:58.382Z,100804.50
2023-12-30T06:21:06.255Z,100819.94
2023-12-30T06:26:08.309Z,100816.41
2023-12-30T06:31:10.566Z,100819.75
2023-12-30T06:36:22.435Z,100817.72
2023-12-30T06:41:24.474Z,100828.03
2023-12-30T06:46:26.454Z,100823.88
2023-12-30T06:51:29.126Z,100840.81
2023-12-30T06:56:31.232Z,100833.22
2023-12-30T07:01:33.550Z,100840.19
2023-12-30T07:06:35.545Z,100835.50
2023-12-30T07:11:37.479Z,100854.19
2023-12-30T07:16:39.482Z,100864.66
2023-12-30T07:21:41.646Z,100870.53
2023-12-30T07:26:46.219Z,100875.81
2023-12-30T07:31:49.734Z,100884.25
2023-12-30T07:36:53.059Z,100894.38
2023-12-30T07:41:55.456Z,100908.53
2023-12-30T07:47:15.762Z,100900.50
2023-12-30T07:52:18.037Z,100916.47
2023-12-30T07:57:20.876Z,100918.22
2023-12-30T08:02:23.154Z,100934.50
2023-12-30T08:07:26.490Z,100923.59
2023-12-30T08:12:28.462Z,100944.16
2023-12-30T08:17:30.574Z,100945.69
2023-12-30T08:22:32.856Z,100937.91
2023-12-30T08:27:34.822Z,100956.69
2023-12-30T08:32:36.822Z,100961.84
2023-12-30T08:37:39.092Z,100973.63
2023-12-30T08:42:45.543Z,100979.59
2023-12-30T08:47:48.259Z,100991.63
2023-12-30T08:52:50.610Z,100995.97
2023-12-30T08:57:52.614Z,100986.66
2023-12-30T09:02:57.042Z,101016.53
2023-12-30T09:07:59.256Z,101012.31
2023-12-30T09:13:01.642Z,101026.91
2023-12-30T09:18:04.407Z,101032.94
2023-12-30T09:23:06.484Z,101026.38
2023-12-30T09:28:08.523Z,101023.97
2023-12-30T09:33:12.342Z,101037.66
2023-12-30T09:38:14.893Z,101055.69
2023-12-30T09:43:24.434Z,101067.31
2023-12-30T09:48:28.379Z,101079.88
2023-12-30T09:53:31.840Z,101070.53
2023-12-30T09:58:34.571Z,101071.00
2023-12-30T10:03:37.322Z,101082.31
2023-12-30T10:08:39.639Z,101096.97
2023-12-30T10:13:41.999Z,101088.34
2023-12-30T10:18:44.592Z,101087.53
2023-12-30T10:23:50.197Z,101114.56
2023-12-30T10:28:52.936Z,101102.22
2023-12-30T10:33:55.180Z,101116.66
2023-12-30T10:39:00.389Z,101098.50
2023-12-30T10:44:02.319Z,101102.31
2023-12-30T10:49:05.559Z,101112.66
2023-12-30T10:54:09.240Z,101106.13
2023-12-30T10:59:13.556Z,101118.91
2023-12-30T11:04:16.439Z,101092.69
2023-12-30T11:09:20.830Z,101091.69
2023-12-30T11:14:23.742Z,101112.69
2023-12-30T11:19:31.373Z,101098.94
2023-12-30T11:24:34.992Z,101118.56
2023-12-30T11:29:37.304Z,101116.44
2023-12-30T11:34:39.292Z,101120.63
2023-12-30T11:39:42.685Z,101130.16
2023-12-30T11:44:45.077Z,101104.63
2023-12-30T11:49:47.109Z,101119.66
2023-12-30T11:54:51.930Z,101116.06
2023-12-30T11:59:53.938Z,101104.94
2023-12-30T18:18:38.376Z,101068.13
2023-12-30T18:23:41.944Z,101069.09
2023-12-30T18:28:47.593Z,101062.34
2023-12-30T18:33:53.307Z,101070.06
2023-12-30T18:38:55.628Z,101065.16
2023-12-30T18:43:57.608Z,101054.94
2023-12-30T18:49:00.167Z,101066.09
2023-12-30T18:54:02.257Z,101064.44
2023-12-30T18:59:04.757Z,101053.38
2023-12-30T19:04:07.152Z,101036.31
2023-12-30T19:09:10.305Z,101053.38
2023-12-30T19:14:12.379Z,101056.88
2023-12-30T19:19:14.377Z,101034.72
2023-12-30T19:24:16.446Z,101021.00
2023-12-30T19:29:21.373Z,101028.03
2023-12-30T19:34:25.458Z,101034.94
2023-12-30T19:39:27.941Z,101016.16
2023-12-30T19:44:30.026Z,101009.38
2023-12-30T19:49:32.108Z,100994.88
2023-12-30T19:54:34.173Z,101006.91
2023-12-30T19:59:40.992Z,100963.38
2023-12-30T20:04:43.251Z,101001.00
2023-12-30T20:09:45.753Z,100992.53
2023-12-30T20:14:47.681Z,100996.75
2023-12-30T20:19:50.098Z,100979.63
2023-12-30T20:24:55.089Z,100977.00
2023-12-30T20:29:57.298Z,100967.53
2023-12-30T20:34:59.270Z,100962.50
2023-12-30T20:40:01.346Z,100959.00
2023-12-30T20:45:03.760Z,100934.22
2023-12-30T20:50:06.320Z,100947.88
2023-12-30T20:55:08.544Z,100960.84
2023-12-30T21:00:11.971Z,100947.13
2023-12-30T21:05:13.951Z,100948.94
2023-12-30T21:10:16.089Z,100947.88
2023-12-30T21:15:18.089Z,100930.88
2023-12-30T21:20:20.038Z,100912.97
2023-12-30T21:25:26.845Z,100907.75
2023-12-30T21:30:29.716Z,100915.41
2023-12-30T21:35:31.831Z,100896.81
2023-12-30T21:40:33.921Z,100900.81
2023-12-30T21:45:36.033Z,100914.63
2023-12-30T21:50:38.073Z,100886.53
2023-12-30T21:55:41.733Z,100904.34
2023-12-30T22:00:43.816Z,100870.28
2023-12-30T22:05:46.401Z,100884.81
2023-12-30T22:10:48.540Z,100862.59
2023-12-30T22:15:50.633Z,100729.00
2023-12-30T22:20:56.016Z,100748.75
2023-12-30T22:25:58.177Z,100842.78
2023-12-30T22:31:00.359Z,100872.69
2023-12-30T22:36:06.206Z,100810.50
2023-12-30T22:41:11.126Z,100721.56
2023-12-30T22:46:15.938Z,100681.59
2023-12-30T22:51:19.639Z,100832.97
2023-12-30T22:56:22.082Z,100808.13
2023-12-30T23:01:24.537Z,100737.94
2023-12-30T23:06:30.859Z,100855.13
2023-12-30T23:11:33.426Z,100843.28
2023-12-30T23:16:38.531Z,100761.09
2023-12-30T23:21:40.847Z,100715.03
2023-12-30T23:26:43.088Z,100761.00
2023-12-30T23:31:45.146Z,100741.53
2023-12-30T23:36:47.227Z,100791.19
2023-12-30T23:41:49.265Z,100794.56
2023-12-30T23:46:51.275Z,100760.22
2023-12-30T23:51:56.739Z,100766.34
2023-12-30T23:56:58.746Z,100791.06
